Carson City, MI (48811)

6:11 PM EST on December 09, 2016 (GMT -0500)
Crystal Lake | | Change Station

Elev 820 ft 43.26 °N, 84.94 °W | Updated 2 seconds ago

Overcast
Overcast
25.2 °F
Feels Like 20 °F
N
4.0
Wind Variable Wind from North

Today
High -- | Low -- °F
--% Chance of Precip.
Yesterday
High -- | Low -- °F
Precip. -- in
Pressure 30.39 in
Visibility 10.0 miles
Clouds Overcast 5000 ft
Windchill 20 °F
Dew Point 15 °F
Humidity 66%
Rainfall Not available.
Snow Depth Not available.
7:59 AM 5:04 PM
Waxing Gibbous, 78% visible
METAR KAMN 092254Z AUTO 28011G15KT 10SM OVC050 M03/M10 A3039 RMK AO2 T10331096
Pressure 30.39 in
Visibility 10.0 miles
Clouds Overcast 5000 ft
Windchill 20 °F
Dew Point 15 °F
Humidity 66%
Rainfall Not available.
Snow Depth Not available.
7:59 AM 5:04 PM
Waxing Gibbous, 78% visible
METAR KAMN 092254Z AUTO 28011G15KT 10SM OVC050 M03/M10 A3039 RMK AO2 T10331096

10-Day Weather Forecast

Almanac

Astronomy

Dec. 09, 2016 Rise Set
Actual Time
Civil Twilight
Nautical Twilight
Astronomical Twilight
Moon
Length of Visible Light
Length of Day
Tomorrow will be .
, % of the Moon is Illuminated

Today's Extremes

State Highs State Lows

Community

WunderPhotos

Upload Photos

1,956,535 photos uploaded!

WunderBlog® & News

Nearby

Air Quality

  Air Quality AQ Index Pollutant
Not available.

Snow Depth

Station Depth Elevation

Earthquake Activity

City Distance Mag. Time & Date
Minimum magnitude displayed is 2.5.

Coastal Water Temperatures

Place Temperature

Stations

Nearby Weather Stations

Station Location Temp. Windchill Dew Point Humidity Wind Precip. Elev Updated Type
                   

Watches & Warnings

There are currently no watches in effect.